N16W SKRG-SKCL
Flight info
| Callsign | N16W |
|---|---|
| Flight time | 0h 37m |
| Altitude | 22000 |
| Route | RNG2B RNG W3 ULQ ULQ2G |
| Aircraft | CL60/M-SADE3FGHIJ3J4J7P2RWXY/HB1D1 |
Departure
| Time | 2026-04-29 19:47 |
|---|---|
| Airport | Jose Maria Córdova International Airport (SKRG) |
Arrival
| Time | 2026-04-29 20:25 |
|---|---|
| Airport | Alfonso Bonilla Aragon International Airport (SKCL) |
| Time | Latitude | Longitude | Altitude | Speed | Heading |
|---|---|---|---|---|---|
| 2026-04-29 18:58 | 6.17629 | -75.42683 | 7032 ft | 0 kts | 269° |
| 2026-04-29 19:35 | 6.17629 | -75.42670 | 7032 ft | 2 kts | 270° |
| 2026-04-29 19:35 | 6.17629 | -75.42655 | 7032 ft | 2 kts | 269° |
| 2026-04-29 19:35 | 6.17630 | -75.42641 | 7032 ft | 0 kts | 270° |
| 2026-04-29 19:36 | 6.17631 | -75.42630 | 7032 ft | 2 kts | 244° |
| 2026-04-29 19:36 | 6.17642 | -75.42619 | 7032 ft | 2 kts | 207° |
| 2026-04-29 19:36 | 6.17652 | -75.42616 | 7032 ft | 0 kts | 180° |
| 2026-04-29 19:36 | 6.17655 | -75.42616 | 7032 ft | 0 kts | 180° |
| 2026-04-29 19:39 | 6.17645 | -75.42616 | 7032 ft | 4 kts | 178° |
| 2026-04-29 19:39 | 6.17597 | -75.42615 | 7032 ft | 8 kts | 178° |
| 2026-04-29 19:39 | 6.17564 | -75.42564 | 7032 ft | 12 kts | 88° |
| 2026-04-29 19:39 | 6.17550 | -75.42497 | 7032 ft | 8 kts | 143° |
| 2026-04-29 19:40 | 6.17475 | -75.42490 | 7032 ft | 13 kts | 180° |
| 2026-04-29 19:40 | 6.17362 | -75.42489 | 7032 ft | 17 kts | 179° |
| 2026-04-29 19:40 | 6.17264 | -75.42487 | 7032 ft | 20 kts | 179° |
| 2026-04-29 19:40 | 6.17114 | -75.42486 | 7032 ft | 22 kts | 179° |
| 2026-04-29 19:41 | 6.16979 | -75.42485 | 7032 ft | 9 kts | 179° |
| 2026-04-29 19:41 | 6.16904 | -75.42484 | 7032 ft | 12 kts | 179° |
| 2026-04-29 19:41 | 6.16809 | -75.42484 | 7032 ft | 14 kts | 179° |
| 2026-04-29 19:41 | 6.16697 | -75.42482 | 7032 ft | 17 kts | 179° |
| 2026-04-29 19:42 | 6.16570 | -75.42481 | 7032 ft | 19 kts | 180° |
| 2026-04-29 19:42 | 6.16476 | -75.42481 | 7032 ft | 20 kts | 179° |
| 2026-04-29 19:42 | 6.16276 | -75.42478 | 7032 ft | 22 kts | 179° |
| 2026-04-29 19:42 | 6.16110 | -75.42477 | 7032 ft | 24 kts | 179° |
| 2026-04-29 19:43 | 6.15933 | -75.42476 | 7032 ft | 25 kts | 179° |
| 2026-04-29 19:43 | 6.15747 | -75.42475 | 7032 ft | 27 kts | 180° |
| 2026-04-29 19:43 | 6.15574 | -75.42474 | 7032 ft | 16 kts | 179° |
| 2026-04-29 19:43 | 6.15450 | -75.42474 | 7032 ft | 18 kts | 180° |
| 2026-04-29 19:44 | 6.15312 | -75.42473 | 7032 ft | 20 kts | 180° |
| 2026-04-29 19:44 | 6.15166 | -75.42472 | 7032 ft | 11 kts | 179° |
| 2026-04-29 19:44 | 6.15101 | -75.42471 | 7032 ft | 13 kts | 179° |
| 2026-04-29 19:44 | 6.14999 | -75.42471 | 7032 ft | 15 kts | 180° |
| 2026-04-29 19:45 | 6.14941 | -75.42471 | 7032 ft | 7 kts | 174° |
| 2026-04-29 19:45 | 6.14907 | -75.42426 | 7032 ft | 9 kts | 91° |
| 2026-04-29 19:45 | 6.14915 | -75.42348 | 7032 ft | 12 kts | 66° |
| 2026-04-29 19:45 | 6.14951 | -75.42302 | 7032 ft | 8 kts | 21° |
| 2026-04-29 19:46 | 6.14988 | -75.42303 | 7032 ft | 0 kts | 359° |
| 2026-04-29 19:46 | 6.14989 | -75.42303 | 7032 ft | 2 kts | 359° |
| 2026-04-29 19:46 | 6.15216 | -75.42304 | 7032 ft | 74 kts | 359° |
| 2026-04-29 19:47 | 6.15989 | -75.42309 | 7032 ft | 146 kts | 359° |
| 2026-04-29 19:47 | 6.17182 | -75.42321 | 7347 ft | 180 kts | 360° |
| 2026-04-29 19:47 | 6.18430 | -75.42314 | 8145 ft | 182 kts | 0° |
| 2026-04-29 19:47 | 6.19691 | -75.42314 | 8944 ft | 184 kts | 0° |
| 2026-04-29 19:48 | 6.20985 | -75.42310 | 9660 ft | 195 kts | 2° |
| 2026-04-29 19:48 | 6.21899 | -75.42139 | 9948 ft | 214 kts | 24° |
| 2026-04-29 19:48 | 6.23454 | -75.40605 | 10500 ft | 258 kts | 67° |
| 2026-04-29 19:48 | 6.23778 | -75.38780 | 11139 ft | 280 kts | 95° |
| 2026-04-29 19:49 | 6.23191 | -75.36886 | 12012 ft | 293 kts | 121° |
| 2026-04-29 19:49 | 6.21780 | -75.35363 | 13047 ft | 301 kts | 142° |
| 2026-04-29 19:49 | 6.20149 | -75.34056 | 14127 ft | 305 kts | 138° |
| 2026-04-29 19:49 | 6.18599 | -75.32585 | 15146 ft | 310 kts | 133° |
| 2026-04-29 19:50 | 6.16954 | -75.31145 | 16108 ft | 317 kts | 149° |
| 2026-04-29 19:50 | 6.14878 | -75.30428 | 16993 ft | 323 kts | 173° |
| 2026-04-29 19:50 | 6.12648 | -75.30605 | 17867 ft | 328 kts | 197° |
| 2026-04-29 19:50 | 6.10616 | -75.31636 | 18725 ft | 333 kts | 216° |
| 2026-04-29 19:51 | 6.08767 | -75.33086 | 19617 ft | 337 kts | 219° |
| 2026-04-29 19:51 | 6.06944 | -75.34585 | 20444 ft | 341 kts | 219° |
| 2026-04-29 19:51 | 6.05527 | -75.35747 | 21060 ft | 345 kts | 219° |
| 2026-04-29 19:51 | 6.03635 | -75.37285 | 21846 ft | 349 kts | 219° |
| 2026-04-29 19:52 | 6.01725 | -75.38822 | 22558 ft | 355 kts | 218° |
| 2026-04-29 19:52 | 5.99697 | -75.40312 | 22760 ft | 367 kts | 212° |
| 2026-04-29 19:52 | 5.97482 | -75.41580 | 22745 ft | 361 kts | 206° |
| 2026-04-29 19:52 | 5.95169 | -75.42587 | 22732 ft | 357 kts | 200° |
| 2026-04-29 19:53 | 5.92860 | -75.43463 | 22723 ft | 357 kts | 200° |
| 2026-04-29 19:53 | 5.90491 | -75.44334 | 22716 ft | 365 kts | 199° |
| 2026-04-29 19:53 | 5.87994 | -75.45230 | 22744 ft | 391 kts | 199° |
| 2026-04-29 19:53 | 5.85356 | -75.46162 | 22886 ft | 410 kts | 199° |
| 2026-04-29 19:54 | 5.80074 | -75.48013 | 25124 ft | 392 kts | 199° |
| 2026-04-29 19:54 | 5.77543 | -75.48898 | 25962 ft | 380 kts | 199° |
| 2026-04-29 19:54 | 5.75024 | -75.49778 | 25874 ft | 394 kts | 199° |
| 2026-04-29 19:55 | 5.72433 | -75.50682 | 25458 ft | 390 kts | 199° |
| 2026-04-29 19:55 | 5.69886 | -75.51571 | 25088 ft | 383 kts | 199° |
| 2026-04-29 19:55 | 5.67384 | -75.52444 | 24715 ft | 377 kts | 199° |
| 2026-04-29 19:55 | 5.64885 | -75.53315 | 24342 ft | 370 kts | 199° |
| 2026-04-29 19:56 | 5.62494 | -75.54149 | 23980 ft | 364 kts | 199° |
| 2026-04-29 19:56 | 5.60101 | -75.54983 | 23614 ft | 358 kts | 199° |
| 2026-04-29 19:56 | 5.57766 | -75.55796 | 23254 ft | 354 kts | 199° |
| 2026-04-29 19:56 | 5.55437 | -75.56607 | 22903 ft | 355 kts | 199° |
| 2026-04-29 19:57 | 5.53125 | -75.57413 | 22710 ft | 353 kts | 199° |
| 2026-04-29 19:57 | 5.51572 | -75.57953 | 22701 ft | 354 kts | 199° |
| 2026-04-29 19:57 | 5.48449 | -75.59040 | 22703 ft | 356 kts | 199° |
| 2026-04-29 19:57 | 5.46116 | -75.59851 | 22702 ft | 356 kts | 199° |
| 2026-04-29 19:58 | 5.43766 | -75.60668 | 22703 ft | 356 kts | 199° |
| 2026-04-29 19:58 | 5.41412 | -75.61487 | 22703 ft | 356 kts | 199° |
| 2026-04-29 19:58 | 5.39066 | -75.62304 | 22704 ft | 356 kts | 199° |
| 2026-04-29 19:58 | 5.36731 | -75.63118 | 22705 ft | 356 kts | 199° |
| 2026-04-29 19:59 | 5.34372 | -75.63940 | 22706 ft | 356 kts | 199° |
| 2026-04-29 19:59 | 5.32013 | -75.64763 | 22707 ft | 356 kts | 199° |
| 2026-04-29 19:59 | 5.29668 | -75.65581 | 22707 ft | 356 kts | 199° |
| 2026-04-29 19:59 | 5.27327 | -75.66396 | 22708 ft | 356 kts | 199° |
| 2026-04-29 20:00 | 5.24970 | -75.67218 | 22707 ft | 356 kts | 199° |
| 2026-04-29 20:00 | 5.22649 | -75.68027 | 22704 ft | 356 kts | 199° |
| 2026-04-29 20:00 | 5.20296 | -75.68847 | 22698 ft | 356 kts | 199° |
| 2026-04-29 20:00 | 5.17956 | -75.69662 | 22690 ft | 356 kts | 199° |
| 2026-04-29 20:01 | 5.15619 | -75.70477 | 22680 ft | 356 kts | 199° |
| 2026-04-29 20:01 | 5.13267 | -75.71298 | 22667 ft | 356 kts | 199° |
| 2026-04-29 20:01 | 5.10928 | -75.72115 | 22652 ft | 356 kts | 199° |
| 2026-04-29 20:01 | 5.08604 | -75.72928 | 22638 ft | 356 kts | 199° |
| 2026-04-29 20:02 | 5.06243 | -75.73753 | 22626 ft | 356 kts | 199° |
| 2026-04-29 20:02 | 5.03909 | -75.74570 | 22615 ft | 357 kts | 199° |
| 2026-04-29 20:02 | 5.01572 | -75.75386 | 22606 ft | 357 kts | 199° |
| 2026-04-29 20:02 | 4.99998 | -75.75936 | 22600 ft | 357 kts | 199° |
| 2026-04-29 20:03 | 4.96845 | -75.77038 | 22589 ft | 358 kts | 199° |
| 2026-04-29 20:03 | 4.94462 | -75.77871 | 22582 ft | 358 kts | 199° |
| 2026-04-29 20:03 | 4.92128 | -75.78687 | 22573 ft | 359 kts | 199° |
| 2026-04-29 20:03 | 4.89773 | -75.79509 | 22563 ft | 359 kts | 199° |
| 2026-04-29 20:04 | 4.87398 | -75.80339 | 22552 ft | 359 kts | 199° |
| 2026-04-29 20:04 | 4.85026 | -75.81168 | 22543 ft | 359 kts | 199° |
| 2026-04-29 20:04 | 4.82668 | -75.81992 | 22535 ft | 359 kts | 199° |
| 2026-04-29 20:04 | 4.80314 | -75.82851 | 22527 ft | 359 kts | 201° |
| 2026-04-29 20:05 | 4.78009 | -75.83884 | 22523 ft | 359 kts | 206° |
| 2026-04-29 20:05 | 4.75778 | -75.85032 | 22518 ft | 359 kts | 207° |
| 2026-04-29 20:05 | 4.73565 | -75.86217 | 22509 ft | 359 kts | 208° |
| 2026-04-29 20:05 | 4.71395 | -75.87401 | 22502 ft | 359 kts | 208° |
| 2026-04-29 20:06 | 4.69203 | -75.88609 | 22495 ft | 359 kts | 208° |
| 2026-04-29 20:06 | 4.66988 | -75.89837 | 22488 ft | 359 kts | 209° |
| 2026-04-29 20:06 | 4.64828 | -75.91039 | 22482 ft | 359 kts | 209° |
| 2026-04-29 20:06 | 4.62639 | -75.92258 | 22476 ft | 359 kts | 209° |
| 2026-04-29 20:07 | 4.60456 | -75.93477 | 22473 ft | 359 kts | 209° |
| 2026-04-29 20:07 | 4.58273 | -75.94696 | 22474 ft | 359 kts | 209° |
| 2026-04-29 20:07 | 4.56105 | -75.95908 | 22476 ft | 359 kts | 209° |
| 2026-04-29 20:07 | 4.53901 | -75.97140 | 22478 ft | 359 kts | 209° |
| 2026-04-29 20:08 | 4.51726 | -75.98356 | 22481 ft | 359 kts | 209° |
| 2026-04-29 20:08 | 4.50271 | -75.99169 | 22483 ft | 359 kts | 209° |
| 2026-04-29 20:08 | 4.47358 | -76.00797 | 22486 ft | 359 kts | 209° |
| 2026-04-29 20:08 | 4.45195 | -76.02009 | 22489 ft | 359 kts | 209° |
| 2026-04-29 20:09 | 4.43008 | -76.03237 | 22493 ft | 359 kts | 209° |
| 2026-04-29 20:09 | 4.40814 | -76.04470 | 22497 ft | 359 kts | 209° |
| 2026-04-29 20:09 | 4.38636 | -76.05694 | 22502 ft | 359 kts | 209° |
| 2026-04-29 20:09 | 4.36458 | -76.06918 | 22508 ft | 359 kts | 209° |
| 2026-04-29 20:10 | 4.34262 | -76.08151 | 22514 ft | 359 kts | 209° |
| 2026-04-29 20:10 | 4.32103 | -76.09365 | 22522 ft | 359 kts | 209° |
| 2026-04-29 20:10 | 4.29906 | -76.10599 | 22529 ft | 359 kts | 209° |
| 2026-04-29 20:10 | 4.27723 | -76.11826 | 22531 ft | 359 kts | 209° |
| 2026-04-29 20:11 | 4.25556 | -76.13042 | 22523 ft | 359 kts | 209° |
| 2026-04-29 20:11 | 4.23374 | -76.14268 | 22520 ft | 359 kts | 209° |
| 2026-04-29 20:11 | 4.21180 | -76.15498 | 22517 ft | 359 kts | 209° |
| 2026-04-29 20:11 | 4.19017 | -76.16713 | 22517 ft | 359 kts | 209° |
| 2026-04-29 20:12 | 4.16828 | -76.17941 | 22516 ft | 359 kts | 209° |
| 2026-04-29 20:12 | 4.14641 | -76.19168 | 22517 ft | 359 kts | 209° |
| 2026-04-29 20:12 | 4.12477 | -76.20383 | 22518 ft | 359 kts | 209° |
| 2026-04-29 20:12 | 4.10290 | -76.21603 | 22518 ft | 360 kts | 207° |
| 2026-04-29 20:13 | 4.07927 | -76.22417 | 22492 ft | 358 kts | 189° |
| 2026-04-29 20:13 | 4.06283 | -76.22649 | 22539 ft | 358 kts | 186° |
| 2026-04-29 20:13 | 4.03004 | -76.22974 | 22527 ft | 359 kts | 185° |
| 2026-04-29 20:13 | 4.00490 | -76.23202 | 22527 ft | 359 kts | 184° |
| 2026-04-29 20:14 | 3.98028 | -76.23427 | 22527 ft | 359 kts | 185° |
| 2026-04-29 20:14 | 3.95524 | -76.23659 | 22548 ft | 358 kts | 185° |
| 2026-04-29 20:14 | 3.93062 | -76.23891 | 22620 ft | 357 kts | 185° |
| 2026-04-29 20:14 | 3.90545 | -76.24130 | 22068 ft | 371 kts | 185° |
| 2026-04-29 20:15 | 3.87978 | -76.24375 | 21429 ft | 366 kts | 185° |
| 2026-04-29 20:15 | 3.85468 | -76.24617 | 21041 ft | 354 kts | 185° |
| 2026-04-29 20:15 | 3.83004 | -76.24855 | 20329 ft | 351 kts | 185° |
| 2026-04-29 20:15 | 3.80643 | -76.25084 | 20036 ft | 338 kts | 185° |
| 2026-04-29 20:16 | 3.78255 | -76.25315 | 19500 ft | 342 kts | 185° |
| 2026-04-29 20:16 | 3.75892 | -76.25544 | 19178 ft | 339 kts | 185° |
| 2026-04-29 20:16 | 3.73600 | -76.25766 | 18642 ft | 341 kts | 185° |
| 2026-04-29 20:16 | 3.71259 | -76.25993 | 18265 ft | 334 kts | 185° |
| 2026-04-29 20:17 | 3.68934 | -76.26219 | 17743 ft | 336 kts | 185° |
| 2026-04-29 20:17 | 3.66612 | -76.26476 | 17357 ft | 329 kts | 186° |
| 2026-04-29 20:17 | 3.64794 | -76.26696 | 16970 ft | 331 kts | 186° |
| 2026-04-29 20:17 | 3.62507 | -76.26978 | 16535 ft | 326 kts | 187° |
| 2026-04-29 20:18 | 3.60249 | -76.27259 | 16090 ft | 326 kts | 187° |
| 2026-04-29 20:18 | 3.57966 | -76.27544 | 15648 ft | 322 kts | 187° |
| 2026-04-29 20:18 | 3.55734 | -76.27822 | 15225 ft | 322 kts | 187° |
| 2026-04-29 20:18 | 3.53510 | -76.28100 | 14917 ft | 319 kts | 187° |
| 2026-04-29 20:19 | 3.51298 | -76.28376 | 14377 ft | 322 kts | 187° |
| 2026-04-29 20:19 | 3.49084 | -76.28742 | 14049 ft | 314 kts | 191° |
| 2026-04-29 20:19 | 3.46933 | -76.29188 | 13490 ft | 316 kts | 192° |
| 2026-04-29 20:19 | 3.44776 | -76.29656 | 13170 ft | 307 kts | 192° |
| 2026-04-29 20:20 | 3.42684 | -76.30118 | 12668 ft | 310 kts | 192° |
| 2026-04-29 20:20 | 3.40573 | -76.30585 | 12272 ft | 304 kts | 192° |
| 2026-04-29 20:20 | 3.38496 | -76.31047 | 11883 ft | 305 kts | 193° |
| 2026-04-29 20:20 | 3.36540 | -76.31851 | 11382 ft | 302 kts | 215° |
| 2026-04-29 20:21 | 3.35122 | -76.33391 | 10771 ft | 297 kts | 242° |
| 2026-04-29 20:21 | 3.34536 | -76.35329 | 10155 ft | 292 kts | 268° |
| 2026-04-29 20:21 | 3.34839 | -76.37334 | 9528 ft | 285 kts | 290° |
| 2026-04-29 20:21 | 3.35830 | -76.39024 | 8881 ft | 279 kts | 316° |
| 2026-04-29 20:22 | 3.37193 | -76.40011 | 7817 ft | 294 kts | 336° |
| 2026-04-29 20:22 | 3.39014 | -76.40452 | 6417 ft | 310 kts | 358° |
| 2026-04-29 20:22 | 3.41172 | -76.40228 | 5177 ft | 313 kts | 8° |
| 2026-04-29 20:22 | 3.43266 | -76.39921 | 4598 ft | 296 kts | 7° |
| 2026-04-29 20:23 | 3.45260 | -76.39711 | 4234 ft | 274 kts | 7° |
| 2026-04-29 20:23 | 3.47088 | -76.39430 | 3979 ft | 252 kts | 10° |
| 2026-04-29 20:23 | 3.48724 | -76.39156 | 3952 ft | 212 kts | 11° |
| 2026-04-29 20:23 | 3.50057 | -76.38911 | 3894 ft | 180 kts | 10° |
| 2026-04-29 20:24 | 3.51216 | -76.38708 | 3633 ft | 157 kts | 9° |
| 2026-04-29 20:24 | 3.52240 | -76.38535 | 3345 ft | 147 kts | 9° |
| 2026-04-29 20:24 | 3.53208 | -76.38367 | 3178 ft | 134 kts | 11° |
| 2026-04-29 20:24 | 3.54037 | -76.38217 | 3170 ft | 103 kts | 9° |
| 2026-04-29 20:25 | 3.54555 | -76.38127 | 3170 ft | 44 kts | 9° |
| 2026-04-29 20:25 | 3.54852 | -76.38076 | 3170 ft | 41 kts | 10° |
| 2026-04-29 20:25 | 3.55042 | -76.38044 | 3170 ft | 11 kts | 8° |
| 2026-04-29 20:25 | 3.55100 | -76.38103 | 3170 ft | 10 kts | 279° |
| 2026-04-29 20:26 | 3.55104 | -76.38133 | 3170 ft | 0 kts | 279° |
| 2026-04-29 20:26 | 3.55105 | -76.38139 | 3170 ft | 0 kts | 279° |
| 2026-04-29 20:26 | 3.55107 | -76.38148 | 3170 ft | 4 kts | 279° |
| 2026-04-29 20:27 | 3.55105 | -76.38202 | 3170 ft | 10 kts | 221° |
| 2026-04-29 20:27 | 3.55053 | -76.38210 | 3170 ft | 12 kts | 184° |
| 2026-04-29 20:27 | 3.54934 | -76.38227 | 3170 ft | 13 kts | 189° |
| 2026-04-29 20:27 | 3.54835 | -76.38244 | 3170 ft | 14 kts | 189° |
| 2026-04-29 20:28 | 3.54729 | -76.38262 | 3170 ft | 15 kts | 189° |
| 2026-04-29 20:28 | 3.54614 | -76.38282 | 3170 ft | 16 kts | 189° |
| 2026-04-29 20:28 | 3.54495 | -76.38303 | 3170 ft | 17 kts | 190° |
| 2026-04-29 20:28 | 3.54367 | -76.38326 | 3170 ft | 18 kts | 189° |
| 2026-04-29 20:29 | 3.54234 | -76.38348 | 3170 ft | 19 kts | 190° |
| 2026-04-29 20:29 | 3.54131 | -76.38366 | 3170 ft | 11 kts | 190° |
| 2026-04-29 20:29 | 3.54047 | -76.38380 | 3170 ft | 12 kts | 189° |
| 2026-04-29 20:29 | 3.53955 | -76.38397 | 3170 ft | 13 kts | 189° |
| 2026-04-29 20:30 | 3.53854 | -76.38414 | 3170 ft | 15 kts | 190° |
| 2026-04-29 20:30 | 3.53745 | -76.38433 | 3170 ft | 16 kts | 190° |
| 2026-04-29 20:30 | 3.53630 | -76.38453 | 3170 ft | 17 kts | 190° |
| 2026-04-29 20:30 | 3.53544 | -76.38468 | 3170 ft | 9 kts | 189° |
| 2026-04-29 20:31 | 3.53471 | -76.38480 | 3170 ft | 11 kts | 189° |
| 2026-04-29 20:31 | 3.53396 | -76.38493 | 3170 ft | 8 kts | 190° |
| 2026-04-29 20:31 | 3.53365 | -76.38535 | 3170 ft | 9 kts | 277° |
| 2026-04-29 20:31 | 3.53375 | -76.38596 | 3170 ft | 6 kts | 281° |
| 2026-04-29 20:32 | 3.53382 | -76.38633 | 3170 ft | 2 kts | 275° |
| 2026-04-29 20:32 | 3.53365 | -76.38644 | 3170 ft | 5 kts | 195° |
| 2026-04-29 20:32 | 3.53333 | -76.38650 | 3170 ft | 0 kts | 189° |